Time;durP1;ratioP1;P1;durP2;ratioP2;P2;SDS_P1;SDS_P2;PMS_P1;PMS_P2;Temp;Humidity;BMP_temperature;BMP_pressure;BME280_temperature;BME280_humidity;BME280_pressure;Samples;Min_cycle;Max_cycle;Signal;HPM_P1;HPM_P2
2020/12/01 00:00:25;;;;;;;15.00;10.77;;;0.00;99.90;;;;;;5055440;28;20183;-53
2020/12/01 00:02:51;;;;;;;15.00;10.70;;;0.00;99.90;;;;;;5055832;28;20500;-53
2020/12/01 00:05:19;;;;;;;14.40;10.63;;;0.00;99.90;;;;;;5054848;28;20212;-52
2020/12/01 00:07:44;;;;;;;14.77;10.80;;;0.10;99.90;;;;;;5055102;28;20429;-58
2020/12/01 00:10:14;;;;;;;17.70;11.70;;;0.10;99.90;;;;;;5055360;28;20437;-51
2020/12/01 00:12:43;;;;;;;15.03;11.53;;;0.20;99.90;;;;;;5055151;28;20215;-55
2020/12/01 00:15:11;;;;;;;16.50;11.10;;;0.30;99.90;;;;;;5055477;28;20420;-59
2020/12/01 00:17:37;;;;;;;16.10;11.37;;;0.40;99.90;;;;;;5054852;28;20429;-54
2020/12/01 00:20:05;;;;;;;15.27;11.53;;;0.50;99.90;;;;;;5055124;28;20414;-58
2020/12/01 00:22:31;;;;;;;14.93;11.07;;;0.40;99.90;;;;;;5054633;28;20203;-53
2020/12/01 00:24:57;;;;;;;14.53;11.03;;;0.50;99.90;;;;;;5055016;28;20456;-52
2020/12/01 00:27:22;;;;;;;15.47;10.80;;;0.50;99.90;;;;;;5055215;28;20233;-52
2020/12/01 00:29:48;;;;;;;15.23;11.20;;;0.50;99.90;;;;;;5055381;28;20406;-52
2020/12/01 00:32:13;;;;;;;15.53;11.30;;;0.40;99.90;;;;;;5054952;28;20198;-60
2020/12/01 00:34:39;;;;;;;14.57;10.33;;;0.40;99.90;;;;;;5055451;28;20220;-60
2020/12/01 00:37:05;;;;;;;13.77;10.47;;;0.50;99.90;;;;;;5055222;28;20241;-55
2020/12/01 00:39:30;;;;;;;15.50;11.47;;;0.40;99.90;;;;;;5054335;28;20179;-53
2020/12/01 00:41:56;;;;;;;15.90;11.87;;;0.30;99.90;;;;;;5054128;28;20650;-60
2020/12/01 00:44:24;;;;;;;14.17;10.90;;;0.40;99.90;;;;;;5053828;28;20175;-53
2020/12/01 00:46:50;;;;;;;13.90;10.43;;;0.40;99.90;;;;;;5054167;28;20277;-53
2020/12/01 00:49:16;;;;;;;14.17;10.83;;;0.30;99.90;;;;;;5053943;28;20495;-56
2020/12/01 00:51:42;;;;;;;11.77;9.43;;;0.50;99.90;;;;;;5054257;28;20256;-52
2020/12/01 00:54:07;;;;;;;14.63;11.00;;;0.50;99.90;;;;;;5054082;28;20174;-60
2020/12/01 00:56:33;;;;;;;13.13;10.27;;;0.40;99.90;;;;;;5053778;28;20434;-54
2020/12/01 00:58:59;;;;;;;14.53;10.53;;;0.30;99.90;;;;;;5036869;28;20240;-57
2020/12/01 01:01:26;;;;;;;15.23;10.63;;;0.30;99.90;;;;;;5054842;28;20253;-52
2020/12/01 01:03:51;;;;;;;14.03;10.70;;;0.30;99.90;;;;;;5055301;28;20194;-60
2020/12/01 01:06:17;;;;;;;14.27;11.00;;;0.30;99.90;;;;;;5053992;28;20448;-59
2020/12/01 01:08:43;;;;;;;15.10;11.30;;;0.30;99.90;;;;;;5054465;28;20198;-52
2020/12/01 01:11:09;;;;;;;14.47;11.40;;;0.30;99.90;;;;;;5054084;28;20179;-55
2020/12/01 01:13:36;;;;;;;13.47;9.90;;;0.30;99.90;;;;;;5055349;28;20189;-52
2020/12/01 01:16:03;;;;;;;13.80;9.93;;;0.30;99.90;;;;;;5036009;28;20418;-58
2020/12/01 01:18:28;;;;;;;15.23;11.03;;;0.40;99.90;;;;;;5054976;28;20493;-53
2020/12/01 01:20:54;;;;;;;14.90;10.77;;;0.50;99.90;;;;;;5054226;28;20478;-56
2020/12/01 01:23:20;;;;;;;15.43;11.50;;;0.60;99.90;;;;;;5054373;28;20203;-52
2020/12/01 01:25:45;;;;;;;15.33;11.43;;;0.60;99.90;;;;;;5054429;28;20178;-59
2020/12/01 01:28:11;;;;;;;15.73;11.40;;;0.70;99.90;;;;;;5053832;28;20226;-58
2020/12/01 01:30:39;;;;;;;18.13;12.83;;;0.80;99.90;;;;;;5054435;28;20256;-51
2020/12/01 01:33:06;;;;;;;18.53;13.50;;;0.90;99.90;;;;;;5057218;28;20241;-60
2020/12/01 01:35:34;;;;;;;17.63;12.60;;;0.90;99.90;;;;;;5057628;28;20505;-60
2020/12/01 01:38:03;;;;;;;18.90;12.50;;;0.90;99.90;;;;;;5049866;28;20450;-53
2020/12/01 01:40:30;;;;;;;19.50;14.30;;;0.90;99.90;;;;;;5038944;28;20410;-54
2020/12/01 01:42:56;;;;;;;16.33;12.17;;;0.90;99.90;;;;;;5038085;28;20545;-57
2020/12/01 01:45:47;;;;;;;15.17;12.30;;;0.70;99.90;;;;;;5037284;28;20410;-60
2020/12/01 01:48:21;;;;;;;16.40;11.20;;;0.50;99.90;;;;;;5039593;28;20418;-51
2020/12/01 01:51:14;;;;;;;16.40;11.53;;;0.60;99.90;;;;;;5038000;28;20433;-60
2020/12/01 01:53:45;;;;;;;15.47;11.63;;;0.70;99.90;;;;;;5030928;28;20431;-60
2020/12/01 01:56:16;;;;;;;16.00;11.80;;;0.80;99.90;;;;;;5037635;28;20411;-59
2020/12/01 01:58:44;;;;;;;15.60;11.70;;;0.80;99.90;;;;;;5037361;28;20409;-58
2020/12/01 02:01:16;;;;;;;15.13;11.23;;;0.80;99.90;;;;;;5037380;28;20406;-52
2020/12/01 02:03:53;;;;;;;16.30;11.50;;;0.80;99.90;;;;;;5037708;28;20390;-58
2020/12/01 02:06:25;;;;;;;16.10;11.57;;;0.90;99.90;;;;;;5037038;28;20433;-53
2020/12/01 02:08:58;;;;;;;17.93;12.80;;;1.00;99.90;;;;;;5037827;28;20457;-53
2020/12/01 02:11:24;;;;;;;23.53;14.90;;;1.10;99.90;;;;;;5037160;28;20465;-53
2020/12/01 02:14:08;;;;;;;23.13;14.67;;;1.10;99.90;;;;;;5037580;28;20399;-53
2020/12/01 02:16:35;;;;;;;22.23;16.00;;;1.10;99.90;;;;;;5036723;28;20502;-56
2020/12/01 02:19:02;;;;;;;22.33;14.97;;;0.90;99.90;;;;;;5037796;28;20464;-54
2020/12/01 02:21:39;;;;;;;22.87;14.60;;;0.80;99.90;;;;;;5037534;28;20469;-51
2020/12/01 02:24:08;;;;;;;19.83;14.40;;;0.90;99.90;;;;;;5037237;28;20406;-56
2020/12/01 02:26:34;;;;;;;20.03;13.73;;;0.80;99.90;;;;;;5037575;28;20472;-60
2020/12/01 02:29:05;;;;;;;21.27;14.13;;;0.90;99.90;;;;;;5037577;28;20439;-53
2020/12/01 02:31:30;;;;;;;22.07;14.60;;;0.90;99.90;;;;;;5037364;28;20231;-55
2020/12/01 02:33:56;;;;;;;22.67;15.27;;;1.00;99.90;;;;;;5037635;28;20434;-58
2020/12/01 02:36:22;;;;;;;22.00;14.83;;;1.00;99.90;;;;;;5036636;28;20199;-57
2020/12/01 02:38:47;;;;;;;21.83;14.60;;;1.00;99.90;;;;;;5037265;28;20168;-57
2020/12/01 02:41:13;;;;;;;23.20;14.47;;;1.20;99.90;;;;;;5037072;28;20176;-60
2020/12/01 02:43:38;;;;;;;22.53;14.43;;;1.10;99.90;;;;;;5036735;28;20182;-51
2020/12/01 02:46:04;;;;;;;21.20;14.80;;;1.00;99.90;;;;;;5036780;28;20206;-52
2020/12/01 02:48:30;;;;;;;22.93;14.63;;;1.00;99.90;;;;;;5037092;28;20259;-53
2020/12/01 02:50:55;;;;;;;22.17;13.63;;;1.00;99.90;;;;;;5036977;28;20438;-52
2020/12/01 02:53:21;;;;;;;20.87;13.83;;;1.00;99.90;;;;;;5036156;28;20238;-57
2020/12/01 02:55:47;;;;;;;20.77;13.87;;;1.00;99.90;;;;;;5056466;28;20187;-58
2020/12/01 02:58:12;;;;;;;18.97;13.40;;;1.10;99.90;;;;;;5056613;28;20236;-60
2020/12/01 03:00:38;;;;;;;22.53;14.17;;;1.10;99.90;;;;;;5056375;28;20171;-51
2020/12/01 03:03:03;;;;;;;18.33;13.20;;;1.10;99.90;;;;;;5056912;28;20171;-58
2020/12/01 03:05:29;;;;;;;17.43;13.17;;;1.20;99.90;;;;;;5055963;28;20185;-60
2020/12/01 03:07:54;;;;;;;18.63;14.37;;;1.20;99.90;;;;;;5056443;28;20281;-54
2020/12/01 03:10:20;;;;;;;18.57;13.23;;;1.30;99.90;;;;;;5056505;28;20275;-57
2020/12/01 03:12:45;;;;;;;17.43;13.37;;;1.40;99.90;;;;;;5055938;28;20206;-53
2020/12/01 03:15:13;;;;;;;20.27;15.00;;;1.40;99.90;;;;;;5056152;28;20175;-53
2020/12/01 03:17:39;;;;;;;20.80;15.70;;;1.40;99.90;;;;;;5056686;28;20540;-53
2020/12/01 03:20:05;;;;;;;21.47;15.27;;;1.30;99.90;;;;;;5056747;28;20477;-52
2020/12/01 03:22:30;;;;;;;20.00;14.70;;;1.40;99.90;;;;;;5056004;28;20448;-56
2020/12/01 03:24:56;;;;;;;19.17;14.50;;;1.40;99.90;;;;;;5055654;28;20177;-52
2020/12/01 03:27:21;;;;;;;20.33;14.17;;;1.40;99.90;;;;;;5055943;28;20701;-60
2020/12/01 03:29:47;;;;;;;18.27;13.73;;;1.40;99.90;;;;;;5056227;28;20665;-56
2020/12/01 03:32:13;;;;;;;19.00;13.37;;;1.50;99.90;;;;;;5056472;28;20539;-58
2020/12/01 03:34:38;;;;;;;19.03;14.00;;;1.60;99.90;;;;;;5055600;28;20670;-53
2020/12/01 03:37:04;;;;;;;19.57;13.80;;;1.60;99.90;;;;;;5056002;28;20191;-51
2020/12/01 03:39:29;;;;;;;19.60;13.60;;;1.70;99.90;;;;;;5056645;28;20167;-53
2020/12/01 03:41:55;;;;;;;18.37;13.40;;;1.70;99.90;;;;;;5055512;28;20175;-58
2020/12/01 03:44:20;;;;;;;18.90;13.83;;;1.70;99.90;;;;;;5056023;28;20183;-53
2020/12/01 03:46:46;;;;;;;18.03;13.67;;;1.70;99.90;;;;;;5055506;28;20201;-52
2020/12/01 03:49:11;;;;;;;20.80;14.07;;;1.80;99.90;;;;;;5055188;28;20662;-52
2020/12/01 03:51:37;;;;;;;19.40;13.57;;;1.80;99.90;;;;;;5055728;28;20209;-58
2020/12/01 03:54:03;;;;;;;19.97;14.03;;;1.80;99.90;;;;;;5037952;28;20186;-51
2020/12/01 03:56:28;;;;;;;21.80;14.43;;;1.90;99.90;;;;;;5054501;28;20191;-52
2020/12/01 03:58:54;;;;;;;19.70;13.23;;;1.90;99.90;;;;;;5055587;28;20405;-57
2020/12/01 04:01:19;;;;;;;19.70;14.00;;;1.90;99.90;;;;;;5055561;28;20262;-56
2020/12/01 04:03:45;;;;;;;23.33;15.40;;;1.90;99.90;;;;;;5055464;28;20179;-52
2020/12/01 04:06:11;;;;;;;21.30;14.47;;;1.90;99.90;;;;;;5055845;28;20168;-52
2020/12/01 04:08:36;;;;;;;21.67;14.63;;;1.80;99.90;;;;;;5056143;28;20194;-55
2020/12/01 04:11:03;;;;;;;22.83;15.80;;;1.70;99.90;;;;;;5055546;28;20171;-52
2020/12/01 04:13:29;;;;;;;21.33;15.00;;;1.70;99.90;;;;;;5055224;28;20634;-57
2020/12/01 04:15:54;;;;;;;24.20;14.80;;;1.70;99.90;;;;;;5055123;28;20416;-59
2020/12/01 04:18:20;;;;;;;23.27;14.93;;;1.70;99.90;;;;;;5055585;28;20289;-53
2020/12/01 04:20:45;;;;;;;21.73;15.03;;;1.70;99.90;;;;;;5055101;28;20270;-56
2020/12/01 04:23:11;;;;;;;22.27;15.43;;;1.70;99.90;;;;;;5054699;28;20190;-58
2020/12/01 04:25:36;;;;;;;23.13;15.30;;;1.70;99.90;;;;;;5055545;28;20173;-60
2020/12/01 04:28:05;;;;;;;22.10;15.53;;;1.60;99.90;;;;;;5054139;28;20195;-56
2020/12/01 04:30:31;;;;;;;24.53;16.00;;;1.50;99.90;;;;;;5054478;28;20178;-60
2020/12/01 04:32:56;;;;;;;23.57;16.60;;;1.40;99.90;;;;;;5054193;28;20453;-60
2020/12/01 04:35:23;;;;;;;22.17;14.73;;;1.40;99.90;;;;;;5054278;28;20175;-53
2020/12/01 04:37:49;;;;;;;23.03;14.73;;;1.30;99.90;;;;;;5055190;28;20186;-58
2020/12/01 04:40:21;;;;;;;21.13;14.30;;;1.40;99.90;;;;;;5055430;28;20406;-59
2020/12/01 04:42:58;;;;;;;22.37;15.70;;;1.40;99.90;;;;;;5054676;28;20186;-55
2020/12/01 04:45:24;;;;;;;20.77;14.87;;;1.40;99.90;;;;;;5054556;28;20420;-59
2020/12/01 04:48:03;;;;;;;22.23;15.50;;;1.40;99.90;;;;;;5054197;28;20794;-52
2020/12/01 04:50:52;;;;;;;23.33;15.33;;;1.50;99.90;;;;;;5054425;28;20836;-59
2020/12/01 04:53:39;;;;;;;24.17;15.97;;;1.40;99.90;;;;;;5055722;28;20496;-52
2020/12/01 04:56:13;;;;;;;20.37;14.93;;;1.40;99.90;;;;;;5054063;28;20412;-55
2020/12/01 04:59:16;;;;;;;23.33;15.47;;;1.40;99.90;;;;;;5054397;28;20435;-52
2020/12/01 05:02:25;;;;;;;22.10;15.43;;;1.50;99.90;;;;;;5056105;28;20412;-56
2020/12/01 05:05:22;;;;;;;20.47;14.30;;;1.60;99.90;;;;;;5051587;28;20728;-59
2020/12/01 05:07:59;;;;;;;23.23;15.73;;;1.60;99.90;;;;;;5056034;28;20436;-55
2020/12/01 05:10:27;;;;;;;22.13;15.47;;;1.60;99.90;;;;;;5044527;28;20497;-56
2020/12/01 05:13:08;;;;;;;23.57;17.13;;;1.70;99.90;;;;;;5060619;28;20464;-60
2020/12/01 05:15:41;;;;;;;23.33;16.50;;;1.70;99.90;;;;;;5064657;28;20493;-59
2020/12/01 05:18:26;;;;;;;23.50;16.43;;;1.80;99.90;;;;;;5068433;28;20802;-52
2020/12/01 05:20:58;;;;;;;24.60;16.63;;;1.70;99.90;;;;;;5041684;28;20439;-54
2020/12/01 05:23:33;;;;;;;26.47;17.37;;;1.70;99.90;;;;;;5056259;28;20396;-60
2020/12/01 05:26:01;;;;;;;26.10;17.07;;;1.70;99.90;;;;;;5055986;28;20410;-52
2020/12/01 05:28:27;;;;;;;27.40;18.80;;;1.60;99.90;;;;;;5034268;28;20418;-51
2020/12/01 05:31:04;;;;;;;26.90;17.60;;;1.60;99.90;;;;;;5034992;28;20418;-57
2020/12/01 05:33:32;;;;;;;29.23;19.93;;;1.60;99.90;;;;;;5034079;28;20458;-59
2020/12/01 05:36:05;;;;;;;26.70;19.20;;;1.40;99.90;;;;;;5034275;28;20402;-53
2020/12/01 05:38:33;;;;;;;28.87;20.30;;;1.20;99.90;;;;;;5033468;28;20423;-60
2020/12/01 05:41:23;;;;;;;25.83;18.47;;;1.00;99.90;;;;;;5032845;28;20410;-60
2020/12/01 05:43:57;;;;;;;27.37;18.67;;;1.00;99.90;;;;;;5032642;28;20461;-51
2020/12/01 05:46:36;;;;;;;26.63;19.23;;;1.20;99.90;;;;;;5037694;28;20438;-58
2020/12/01 05:49:42;;;;;;;28.13;18.57;;;1.30;99.90;;;;;;5033817;28;20874;-51
2020/12/01 05:52:16;;;;;;;29.83;18.87;;;1.40;99.90;;;;;;5043815;28;20473;-56
2020/12/01 05:54:45;;;;;;;27.30;18.77;;;1.40;99.90;;;;;;5059019;28;20417;-59
2020/12/01 05:57:24;;;;;;;27.37;17.93;;;1.50;99.90;;;;;;5074037;28;20928;-57
2020/12/01 05:59:55;;;;;;;27.53;18.60;;;1.50;99.90;;;;;;5058619;28;20409;-53
2020/12/01 06:02:58;;;;;;;28.37;18.67;;;1.60;99.90;;;;;;5054020;28;20406;-52
2020/12/01 06:05:25;;;;;;;29.90;20.13;;;1.70;99.90;;;;;;5033539;28;20429;-59
2020/12/01 06:07:55;;;;;;;27.23;18.37;;;1.70;99.90;;;;;;5036440;28;20438;-53
2020/12/01 06:10:34;;;;;;;30.87;20.83;;;1.70;99.90;;;;;;5043783;28;20417;-60
2020/12/01 06:13:33;;;;;;;28.10;19.60;;;1.50;99.90;;;;;;5050227;28;20460;-59
2020/12/01 06:16:08;;;;;;;30.00;20.60;;;1.40;99.90;;;;;;5050783;28;20414;-58
2020/12/01 06:19:11;;;;;;;28.70;19.70;;;1.40;99.90;;;;;;5051320;28;20406;-57
2020/12/01 06:22:09;;;;;;;29.00;19.77;;;1.50;99.90;;;;;;5038727;28;20414;-53
2020/12/01 06:25:17;;;;;;;29.10;19.63;;;1.60;99.90;;;;;;5035200;28;20395;-57
2020/12/01 06:28:20;;;;;;;29.60;19.10;;;1.60;99.90;;;;;;5048625;28;20444;-60
2020/12/01 06:30:53;;;;;;;25.10;18.03;;;1.70;99.90;;;;;;5056843;28;20406;-55
2020/12/01 06:34:02;;;;;;;26.23;18.97;;;1.70;99.90;;;;;;5041510;28;20797;-53
2020/12/01 06:36:52;;;;;;;26.97;18.70;;;1.80;99.90;;;;;;5055612;28;20441;-51
2020/12/01 06:40:18;;;;;;;31.00;21.20;;;1.80;99.90;;;;;;5056841;28;20493;-54
2020/12/01 06:42:51;;;;;;;27.80;19.27;;;1.60;99.90;;;;;;4974088;28;20441;-60
2020/12/01 06:45:36;;;;;;;32.73;22.23;;;1.40;99.90;;;;;;4976250;28;20908;-59
2020/12/01 06:48:08;;;;;;;30.23;20.87;;;1.30;99.90;;;;;;4975617;28;20425;-54
2020/12/01 06:50:39;;;;;;;30.33;20.77;;;1.30;99.90;;;;;;4974800;28;20453;-54
2020/12/01 06:53:06;;;;;;;32.07;21.70;;;1.20;99.90;;;;;;4974519;28;20499;-51
2020/12/01 06:55:39;;;;;;;30.30;20.87;;;1.30;99.90;;;;;;4975249;28;20429;-51
2020/12/01 06:58:28;;;;;;;29.70;20.97;;;1.40;99.90;;;;;;4973412;28;20468;-51
2020/12/01 07:01:22;;;;;;;33.00;21.07;;;1.50;99.90;;;;;;4964999;28;20983;-59
2020/12/01 07:04:07;;;;;;;32.20;21.30;;;1.50;99.90;;;;;;4968341;28;20449;-54
2020/12/01 07:06:47;;;;;;;30.37;19.63;;;1.50;99.90;;;;;;4973168;28;20448;-58
2020/12/01 07:09:15;;;;;;;30.80;21.20;;;1.50;99.90;;;;;;4972317;28;20474;-54
2020/12/01 07:12:21;;;;;;;97.77;47.80;;;1.60;99.90;;;;;;4971679;28;20465;-53
2020/12/01 07:15:14;;;;;;;36.90;23.33;;;1.70;99.90;;;;;;4972547;28;20460;-52
2020/12/01 07:17:49;;;;;;;32.50;21.17;;;1.90;99.90;;;;;;5054361;28;20441;-53
2020/12/01 07:20:40;;;;;;;30.17;20.57;;;1.90;99.90;;;;;;5039499;28;20509;-52
2020/12/01 07:23:26;;;;;;;32.83;22.00;;;2.00;99.90;;;;;;5046277;28;20828;-57
2020/12/01 07:26:00;;;;;;;31.87;20.90;;;2.10;99.90;;;;;;5052248;28;20417;-57
2020/12/01 07:28:34;;;;;;;29.57;20.00;;;2.10;99.90;;;;;;5051623;28;20943;-55
2020/12/01 07:31:15;;;;;;;29.47;20.93;;;2.00;99.90;;;;;;5055813;28;20429;-56
2020/12/01 07:33:59;;;;;;;30.37;20.53;;;2.10;99.90;;;;;;5048662;28;20948;-55
2020/12/01 07:36:37;;;;;;;29.77;19.83;;;2.10;99.90;;;;;;5052313;28;20441;-54
2020/12/01 07:39:08;;;;;;;33.17;21.47;;;2.20;99.90;;;;;;5055214;28;20964;-58
2020/12/01 07:41:33;;;;;;;29.53;20.70;;;2.20;99.90;;;;;;5053750;28;20410;-53
2020/12/01 07:44:14;;;;;;;32.00;22.20;;;2.30;99.90;;;;;;5055266;28;20441;-51
2020/12/01 07:49:20;;;;;;;33.70;22.57;;;2.40;99.90;;;;;;5056912;28;20393;-51
2020/12/01 07:51:47;;;;;;;29.57;20.70;;;2.40;99.90;;;;;;5056668;28;20449;-53
2020/12/01 07:54:25;;;;;;;30.53;20.80;;;2.30;99.90;;;;;;5059480;28;20417;-58
2020/12/01 07:56:50;;;;;;;30.03;21.80;;;2.40;99.90;;;;;;5055117;28;20428;-55
2020/12/01 07:59:16;;;;;;;29.50;21.10;;;2.30;99.90;;;;;;5055417;28;20417;-51
2020/12/01 08:01:43;;;;;;;30.50;20.67;;;2.40;99.90;;;;;;5055595;28;20252;-52
2020/12/01 08:04:13;;;;;;;34.27;22.53;;;2.40;99.90;;;;;;5054734;28;20171;-52
2020/12/01 08:06:40;;;;;;;27.83;20.00;;;2.50;99.90;;;;;;5055412;28;20483;-52
2020/12/01 08:09:15;;;;;;;27.57;19.93;;;2.50;99.90;;;;;;5056428;28;20417;-53
2020/12/01 08:11:42;;;;;;;29.70;20.83;;;2.60;99.90;;;;;;5056138;28;20460;-57
2020/12/01 08:14:09;;;;;;;33.00;22.13;;;2.70;99.90;;;;;;5055166;28;20410;-55
2020/12/01 08:16:34;;;;;;;29.33;20.50;;;2.70;99.90;;;;;;5055556;28;20469;-51
2020/12/01 08:19:01;;;;;;;32.70;22.13;;;2.80;99.90;;;;;;5056572;28;20420;-54
2020/12/01 08:21:36;;;;;;;33.90;22.70;;;2.80;99.90;;;;;;5056390;28;20221;-54
2020/12/01 08:24:06;;;;;;;33.07;21.87;;;2.80;99.90;;;;;;5055529;28;20409;-55
2020/12/01 08:26:36;;;;;;;32.20;22.00;;;2.70;99.90;;;;;;5055427;28;20426;-50
2020/12/01 08:29:29;;;;;;;31.73;21.23;;;2.50;99.90;;;;;;5058685;28;20500;-54
2020/12/01 08:32:21;;;;;;;31.83;22.13;;;2.30;99.90;;;;;;5047601;28;20469;-54
2020/12/01 08:35:08;;;;;;;30.37;21.13;;;2.30;99.90;;;;;;5054403;28;20394;-57
2020/12/01 08:37:43;;;;;;;30.40;21.03;;;2.30;99.90;;;;;;5054124;28;20475;-58
2020/12/01 08:40:29;;;;;;;31.23;21.80;;;2.40;99.90;;;;;;5055770;28;20421;-51
2020/12/01 08:43:14;;;;;;;30.63;21.80;;;2.50;99.90;;;;;;5055269;28;20955;-50
2020/12/01 08:46:09;;;;;;;34.43;22.77;;;2.40;99.90;;;;;;5055624;28;20475;-53
2020/12/01 08:48:38;;;;;;;31.37;21.60;;;2.30;99.90;;;;;;5054739;28;20413;-54
2020/12/01 08:51:26;;;;;;;33.80;23.33;;;2.40;99.90;;;;;;5054343;28;20475;-58
2020/12/01 08:54:23;;;;;;;35.60;22.60;;;2.40;99.90;;;;;;5055311;28;20427;-58
2020/12/01 08:56:48;;;;;;;32.87;22.40;;;2.30;99.90;;;;;;5054270;28;20897;-55
2020/12/01 08:59:22;;;;;;;33.37;23.03;;;2.20;99.90;;;;;;5056153;28;20412;-51
2020/12/01 09:01:48;;;;;;;35.37;23.97;;;2.20;99.90;;;;;;5054067;28;20519;-55
2020/12/01 09:04:23;;;;;;;35.40;24.20;;;2.00;99.90;;;;;;5055646;28;20497;-51
2020/12/01 09:06:51;;;;;;;33.00;23.20;;;2.00;99.90;;;;;;5054132;28;20678;-51
2020/12/01 09:09:21;;;;;;;33.67;23.40;;;2.10;99.90;;;;;;5054494;28;20410;-54
2020/12/01 09:17:51;;;;;;;32.97;22.77;;;2.20;99.90;;;;;;5053963;28;20437;-52
2020/12/01 09:23:17;;;;;;;34.20;23.70;;;2.30;99.90;;;;;;5055708;28;20474;-51
2020/12/01 09:25:45;;;;;;;33.73;22.93;;;2.20;99.90;;;;;;5054666;28;20421;-52
2020/12/01 09:28:26;;;;;;;32.27;23.37;;;2.20;99.90;;;;;;5057235;28;20830;-51
2020/12/01 09:30:52;;;;;;;33.30;22.43;;;2.30;99.90;;;;;;5056160;28;20433;-55
2020/12/01 09:33:21;;;;;;;29.63;22.07;;;2.20;99.90;;;;;;5054745;28;20921;-52
2020/12/01 09:35:48;;;;;;;30.20;21.47;;;2.30;99.90;;;;;;5054621;28;20393;-57
2020/12/01 09:38:13;;;;;;;29.27;21.10;;;2.40;99.90;;;;;;5035814;28;20975;-54
2020/12/01 09:40:39;;;;;;;28.23;20.97;;;2.50;99.90;;;;;;5055014;28;20413;-51
2020/12/01 09:45:41;;;;;;;30.73;21.43;;;2.60;99.90;;;;;;5054546;28;20451;-55
2020/12/01 09:51:02;;;;;;;30.47;22.50;;;2.70;99.90;;;;;;5013327;28;20558;-52
2020/12/01 09:56:03;;;;;;;28.93;22.07;;;2.90;99.90;;;;;;5015996;28;20411;-50
2020/12/01 10:19:53;;;;;;;24.73;19.23;;;5.20;99.90;;;;;;5016246;28;20188;-55
2020/12/01 10:35:36;;;;;;;24.43;18.63;;;5.80;99.90;;;;;;5057332;28;20170;-58
2020/12/01 10:38:02;;;;;;;24.07;19.43;;;6.10;99.90;;;;;;5056436;28;20585;-58
2020/12/01 10:40:29;;;;;;;26.83;20.57;;;6.30;99.90;;;;;;5058610;28;20171;-58
2020/12/01 10:42:55;;;;;;;26.27;19.80;;;6.50;99.90;;;;;;5056879;28;20531;-52
2020/12/01 10:45:22;;;;;;;24.57;19.83;;;6.50;99.90;;;;;;5039206;28;20222;-57
2020/12/01 10:47:47;;;;;;;24.23;19.33;;;6.60;99.90;;;;;;5037146;28;20599;-51
2020/12/01 10:50:14;;;;;;;25.73;20.03;;;6.80;99.90;;;;;;5038024;28;20183;-54
2020/12/01 10:52:39;;;;;;;24.27;19.53;;;7.10;99.90;;;;;;5036975;28;20204;-53
2020/12/01 10:55:06;;;;;;;26.50;22.43;;;7.20;99.90;;;;;;5037403;28;20176;-57
2020/12/01 10:57:32;;;;;;;26.50;20.50;;;7.30;99.40;;;;;;5037101;28;20199;-55
2020/12/01 10:59:57;;;;;;;26.10;20.83;;;7.30;99.30;;;;;;5036756;28;20175;-52
2020/12/01 11:02:23;;;;;;;24.20;19.47;;;7.30;99.50;;;;;;5036133;28;20676;-58
2020/12/01 11:04:48;;;;;;;26.80;20.97;;;7.10;99.20;;;;;;5035666;28;20187;-51
2020/12/01 11:07:14;;;;;;;24.83;19.70;;;6.90;99.40;;;;;;5038431;28;20200;-53
2020/12/01 11:09:39;;;;;;;25.50;19.67;;;6.80;99.70;;;;;;5036598;28;20184;-55
2020/12/01 11:12:05;;;;;;;27.90;20.03;;;6.60;99.80;;;;;;5035596;28;20218;-56
2020/12/01 11:14:31;;;;;;;26.27;20.47;;;6.50;99.90;;;;;;5037008;28;20226;-51
2020/12/01 11:16:56;;;;;;;27.47;20.77;;;6.20;99.90;;;;;;5035908;28;20222;-57
2020/12/01 11:19:22;;;;;;;25.10;20.90;;;5.90;99.90;;;;;;5038954;28;20164;-53
2020/12/01 11:21:47;;;;;;;25.97;20.47;;;6.10;99.90;;;;;;5038528;28;20176;-51
2020/12/01 11:24:13;;;;;;;25.63;20.27;;;6.70;99.90;;;;;;5037533;28;20286;-52
2020/12/01 11:26:38;;;;;;;22.57;19.33;;;7.70;99.90;;;;;;5037763;28;20626;-51
2020/12/01 11:29:04;;;;;;;23.33;19.37;;;8.80;99.30;;;;;;5036516;28;20698;-53
2020/12/01 11:31:32;;;;;;;22.10;18.40;;;10.00;96.60;;;;;;5036861;28;20583;-58
2020/12/01 11:34:08;;;;;;;21.30;18.23;;;11.10;94.00;;;;;;5038054;28;20183;-52
2020/12/01 11:36:35;;;;;;;22.67;19.13;;;11.40;91.50;;;;;;5035433;28;20199;-52
2020/12/01 11:39:03;;;;;;;20.63;17.63;;;11.10;90.70;;;;;;5035774;28;20623;-53
2020/12/01 11:41:29;;;;;;;23.07;18.70;;;10.60;91.00;;;;;;5035980;28;20164;-52
2020/12/01 11:43:54;;;;;;;25.03;20.00;;;10.00;91.50;;;;;;5035510;28;20172;-56
2020/12/01 11:46:20;;;;;;;22.77;19.50;;;9.50;92.90;;;;;;5035732;28;20188;-54
2020/12/01 11:48:46;;;;;;;25.43;20.70;;;9.20;93.70;;;;;;5035535;28;20172;-51
2020/12/01 11:51:13;;;;;;;23.53;19.67;;;8.90;94.10;;;;;;5037340;28;20176;-56
2020/12/01 11:53:39;;;;;;;22.57;19.03;;;8.90;94.50;;;;;;5037746;28;20203;-51
2020/12/01 11:56:05;;;;;;;23.27;19.57;;;9.20;94.70;;;;;;5036613;28;20168;-51
2020/12/01 11:58:30;;;;;;;21.67;18.37;;;9.30;94.10;;;;;;5035314;28;20183;-52
2020/12/01 12:00:56;;;;;;;25.03;20.63;;;9.40;94.00;;;;;;5047140;28;20221;-53
2020/12/01 12:03:21;;;;;;;23.37;19.33;;;9.30;93.30;;;;;;5056417;28;20181;-53
2020/12/01 12:05:47;;;;;;;23.73;20.33;;;9.20;93.50;;;;;;5055892;28;20508;-55
2020/12/01 12:08:13;;;;;;;23.37;18.67;;;9.00;93.60;;;;;;5055101;28;20666;-55
2020/12/01 12:10:38;;;;;;;23.43;20.10;;;8.90;94.10;;;;;;5056610;28;20262;-52
2020/12/01 12:13:04;;;;;;;25.37;20.33;;;8.70;94.30;;;;;;5055406;28;20309;-51
2020/12/01 12:15:30;;;;;;;26.63;21.63;;;8.70;94.70;;;;;;5056398;28;20202;-53
2020/12/01 12:17:55;;;;;;;24.43;20.27;;;8.50;94.60;;;;;;5055318;28;20202;-53
2020/12/01 12:20:21;;;;;;;28.07;22.33;;;8.10;95.20;;;;;;5055882;28;20573;-52
2020/12/01 12:22:47;;;;;;;24.57;20.57;;;7.80;95.70;;;;;;5054670;28;20167;-58
2020/12/01 12:25:13;;;;;;;26.03;20.20;;;7.50;95.90;;;;;;5055051;28;20167;-53
2020/12/01 12:27:38;;;;;;;24.77;19.47;;;7.40;96.50;;;;;;5055145;28;20566;-53
2020/12/01 12:30:04;;;;;;;27.67;20.93;;;7.20;96.80;;;;;;5055202;28;20171;-52
2020/12/01 12:32:30;;;;;;;27.03;20.27;;;7.00;97.10;;;;;;5055722;28;20195;-53
2020/12/01 12:34:55;;;;;;;29.13;21.63;;;6.80;97.40;;;;;;5054352;28;20266;-52
2020/12/01 12:37:21;;;;;;;28.03;21.23;;;6.70;97.60;;;;;;5054360;28;20621;-53
2020/12/01 12:39:47;;;;;;;27.73;21.13;;;6.40;97.70;;;;;;5054894;28;20182;-58
2020/12/01 12:42:12;;;;;;;27.77;21.80;;;6.00;98.30;;;;;;5056065;28;20213;-56
2020/12/01 12:44:38;;;;;;;29.53;22.47;;;5.70;98.80;;;;;;5054800;28;20539;-52
2020/12/01 12:47:03;;;;;;;29.57;22.47;;;5.50;99.50;;;;;;5055004;28;20529;-54
2020/12/01 12:49:29;;;;;;;27.00;21.93;;;5.30;99.90;;;;;;5054514;28;20183;-51
2020/12/01 12:51:55;;;;;;;29.43;22.07;;;5.10;99.90;;;;;;5056563;28;20210;-52
2020/12/01 12:54:20;;;;;;;30.37;21.73;;;5.20;99.90;;;;;;5055293;28;20304;-55
2020/12/01 12:56:46;;;;;;;28.37;21.87;;;5.10;99.90;;;;;;5054917;28;20543;-58
2020/12/01 12:59:12;;;;;;;29.17;22.37;;;5.10;99.90;;;;;;5054775;28;20521;-57
2020/12/01 13:01:37;;;;;;;26.67;21.37;;;5.10;99.90;;;;;;5054531;28;20175;-52
2020/12/01 13:04:03;;;;;;;30.27;22.20;;;5.00;99.90;;;;;;5054793;28;20527;-53
2020/12/01 13:06:28;;;;;;;31.30;23.33;;;5.00;99.90;;;;;;5055049;28;20600;-51
2020/12/01 13:08:54;;;;;;;32.10;23.00;;;5.00;99.90;;;;;;5055918;28;20516;-51
2020/12/01 13:11:19;;;;;;;29.97;21.63;;;4.90;99.90;;;;;;5056133;28;20203;-57
2020/12/01 13:13:45;;;;;;;29.50;22.37;;;5.00;99.90;;;;;;5055094;28;20547;-53
2020/12/01 13:16:12;;;;;;;33.23;24.30;;;5.00;99.90;;;;;;5053727;28;20175;-57
2020/12/01 13:18:38;;;;;;;29.90;22.40;;;5.00;99.90;;;;;;5054324;28;20198;-52
2020/12/01 13:21:03;;;;;;;33.43;25.10;;;4.90;99.90;;;;;;5054802;28;20198;-53
2020/12/01 13:23:29;;;;;;;30.43;23.63;;;4.70;99.90;;;;;;5055229;28;20175;-53
2020/12/01 13:25:54;;;;;;;32.57;23.87;;;4.50;99.90;;;;;;5054429;28;20171;-53
2020/12/01 13:28:20;;;;;;;30.33;22.70;;;4.50;99.90;;;;;;5055924;28;20278;-53
2020/12/01 13:30:45;;;;;;;33.13;24.33;;;4.50;99.90;;;;;;5058597;28;20595;-52
2020/12/01 13:33:11;;;;;;;33.67;24.27;;;4.40;99.90;;;;;;5058007;28;20649;-55
2020/12/01 13:35:37;;;;;;;31.57;23.50;;;4.40;99.90;;;;;;5057529;28;20694;-53
2020/12/01 13:38:02;;;;;;;33.00;24.40;;;4.40;99.90;;;;;;5058474;28;20198;-58
2020/12/01 13:40:28;;;;;;;33.47;23.53;;;4.30;99.90;;;;;;5059072;28;20181;-54
2020/12/01 13:42:53;;;;;;;32.40;24.20;;;4.20;99.90;;;;;;5059626;28;20261;-55
2020/12/01 13:45:19;;;;;;;34.47;25.10;;;4.20;99.90;;;;;;5058349;28;20210;-58
2020/12/01 13:47:45;;;;;;;39.20;27.43;;;4.10;99.90;;;;;;5058180;28;20266;-53